Time;durP1;ratioP1;P1;durP2;ratioP2;P2;SDS_P1;SDS_P2;PMS_P1;PMS_P2;Temp;Humidity;BMP_temperature;BMP_pressure;BME280_temperature;BME280_humidity;BME280_pressure;Samples;Min_cycle;Max_cycle;Signal;HPM_P1;HPM_P2
2021/09/25 00:01:59;;;;;;;3.25;1.00;;;;;;;10.09;99.24;144737.00;1835079;77;22207;-64
2021/09/25 00:04:35;;;;;;;4.42;1.05;;;;;;;10.08;99.34;144734.52;1834991;77;22184;-66
2021/09/25 00:07:28;;;;;;;3.87;1.25;;;;;;;10.10;99.37;144739.55;1834931;77;22140;-69
2021/09/25 00:10:05;;;;;;;4.78;1.32;;;;;;;10.11;99.21;144742.03;1835191;77;22129;-66
2021/09/25 00:13:01;;;;;;;6.42;1.50;;;;;;;10.09;98.97;144737.00;1834950;77;22223;-72
2021/09/25 00:15:42;;;;;;;3.87;1.07;;;;;;;10.07;98.89;144731.98;1853517;77;22610;-64
2021/09/25 00:18:36;;;;;;;3.45;1.30;;;;;;;10.11;98.80;144740.78;1835002;77;22571;-66
2021/09/25 00:21:31;;;;;;;5.75;1.55;;;;;;;10.11;98.64;144740.78;1853710;77;22124;-61
2021/09/25 00:24:06;;;;;;;4.97;1.00;;;;;;;10.12;98.46;144743.28;1853612;77;22151;-68
2021/09/25 00:27:00;;;;;;;2.72;1.17;;;;;;;10.09;98.44;144735.77;1834927;77;22551;-71
2021/09/25 00:29:35;;;;;;;5.22;1.40;;;;;;;10.12;98.32;144744.53;1853560;77;22543;-68
2021/09/25 00:32:10;;;;;;;6.75;1.62;;;;;;;10.13;98.18;144747.06;1834981;77;22148;-67
2021/09/25 00:34:45;;;;;;;3.02;1.15;;;;;;;10.12;97.94;144744.53;1834908;77;22164;-66
2021/09/25 00:37:22;;;;;;;3.58;0.82;;;;;;;10.08;97.96;144734.52;1853668;77;22155;-63
2021/09/25 00:39:59;;;;;;;2.87;1.20;;;;;;;10.09;97.99;144737.00;1835000;77;22124;-65
2021/09/25 00:42:57;;;;;;;6.08;1.20;;;;;;;10.11;97.92;144740.78;1834966;77;22663;-70
2021/09/25 00:45:39;;;;;;;5.10;1.15;;;;;;;10.14;97.59;144748.30;1835041;77;22128;-64
2021/09/25 00:48:20;;;;;;;2.30;0.80;;;;;;;10.10;97.49;144739.55;1834175;77;22164;-69
2021/09/25 00:50:57;;;;;;;6.00;1.55;;;;;;;10.12;97.48;144743.28;1834807;77;22582;-64
2021/09/25 00:53:52;;;;;;;2.47;0.90;;;;;;;10.11;97.40;144742.03;1843316;78;22180;-62
2021/09/25 00:56:29;;;;;;;5.33;1.07;;;;;;;10.10;97.35;144739.55;1834802;77;22155;-60
2021/09/25 00:59:07;;;;;;;3.45;1.15;;;;;;;10.08;97.37;144734.52;1853579;77;22151;-60
2021/09/25 01:02:08;;;;;;;4.87;1.10;;;;;;;10.10;97.42;144739.55;1834149;77;22273;-64
2021/09/25 01:04:45;;;;;;;3.37;1.05;;;;;;;10.13;97.29;144745.81;1837940;77;27946;-64
2021/09/25 01:07:39;;;;;;;3.60;1.10;;;;;;;10.19;97.15;144760.84;1819400;77;27933;-67
2021/09/25 01:10:33;;;;;;;3.90;1.25;;;;;;;10.25;96.98;144774.63;1834965;77;22132;-57
2021/09/25 01:13:08;;;;;;;2.15;1.00;;;;;;;10.25;96.78;144774.63;1835151;77;22204;-64
2021/09/25 01:15:44;;;;;;;5.97;1.75;;;;;;;10.25;96.73;144774.63;1834943;77;20096;-59
2021/09/25 01:18:37;;;;;;;3.35;1.10;;;;;;;10.26;96.72;144777.16;1835004;77;22128;-73
2021/09/25 01:21:12;;;;;;;3.55;1.10;;;;;;;10.27;96.52;144779.64;1835068;77;22137;-67
2021/09/25 01:23:48;;;;;;;5.78;1.35;;;;;;;10.26;96.41;144777.16;1834923;77;22615;-70
2021/09/25 01:26:25;;;;;;;5.40;1.00;;;;;;;10.25;96.37;144775.86;1853559;77;22128;-66
2021/09/25 01:29:19;;;;;;;4.45;1.10;;;;;;;10.28;96.26;144782.19;1838198;77;27936;-60
2021/09/25 01:31:55;;;;;;;3.08;1.20;;;;;;;10.33;96.21;144794.72;1835786;77;22124;-63
2021/09/25 01:34:49;;;;;;;5.17;0.90;;;;;;;10.35;96.07;144799.75;1854026;77;22119;-65
2021/09/25 01:37:24;;;;;;;3.80;1.00;;;;;;;10.35;96.10;144801.00;1835023;77;22125;-60
2021/09/25 01:39:58;;;;;;;3.20;1.07;;;;;;;10.35;95.97;144799.75;1835072;77;22121;-59
2021/09/25 01:42:34;;;;;;;3.30;1.05;;;;;;;10.34;95.92;144798.50;1835000;77;22242;-67
2021/09/25 01:45:27;;;;;;;4.28;0.90;;;;;;;10.32;95.99;144792.23;1853514;77;22135;-65
2021/09/25 01:48:03;;;;;;;5.35;1.40;;;;;;;10.29;96.04;144784.72;1853604;77;22535;-58
2021/09/25 01:51:17;;;;;;;2.62;1.00;;;;;;;10.29;96.06;144785.97;1840588;77;22201;-62
2021/09/25 01:53:51;;;;;;;6.67;1.30;;;;;;;10.27;96.04;144779.64;1835057;77;22151;-62
2021/09/25 01:56:26;;;;;;;5.28;1.10;;;;;;;10.27;96.06;144779.64;1835010;77;22125;-68
2021/09/25 01:59:20;;;;;;;2.37;0.85;;;;;;;10.28;96.09;144782.19;1835061;77;22136;-61
2021/09/25 02:01:57;;;;;;;5.40;1.40;;;;;;;10.26;96.15;144777.16;1843356;77;22179;-64
2021/09/25 02:04:51;;;;;;;4.80;1.25;;;;;;;10.24;96.25;144772.12;1834956;77;22136;-64
2021/09/25 02:07:26;;;;;;;3.98;1.07;;;;;;;10.23;96.30;144770.89;1835007;77;22168;-66
2021/09/25 02:10:28;;;;;;;3.75;1.30;;;;;;;10.21;96.28;144765.86;1853496;77;22159;-64
2021/09/25 02:13:04;;;;;;;5.25;1.52;;;;;;;10.24;96.35;144772.12;1848168;78;22124;-61
2021/09/25 02:15:39;;;;;;;6.33;1.57;;;;;;;10.19;96.31;144762.08;1835046;77;22153;-69
2021/09/25 02:18:14;;;;;;;5.30;1.00;;;;;;;10.20;96.43;144763.33;1834995;77;22132;-67
2021/09/25 02:20:52;;;;;;;2.90;1.10;;;;;;;10.20;96.47;144764.62;1835067;77;22148;-65
2021/09/25 02:23:47;;;;;;;4.60;1.15;;;;;;;10.22;96.51;144769.59;1853500;77;22607;-70
2021/09/25 02:26:22;;;;;;;5.45;1.37;;;;;;;10.21;96.45;144767.11;1835013;77;22124;-63
2021/09/25 02:28:57;;;;;;;6.83;1.40;;;;;;;10.20;96.48;144763.33;1834993;77;22133;-65
2021/09/25 02:31:32;;;;;;;6.58;1.45;;;;;;;10.16;96.65;144754.56;1834982;77;22543;-64
2021/09/25 02:34:26;;;;;;;6.22;1.20;;;;;;;10.13;96.69;144745.81;1834978;77;22137;-68
2021/09/25 02:37:03;;;;;;;5.60;1.10;;;;;;;10.15;96.77;144752.08;1835025;77;22124;-62
2021/09/25 02:39:57;;;;;;;4.95;1.20;;;;;;;10.15;96.78;144750.78;1819398;77;27942;-69
2021/09/25 02:42:52;;;;;;;4.58;1.37;;;;;;;10.17;96.76;144757.06;1783337;79;22286;-66
2021/09/25 02:45:34;;;;;;;5.83;1.77;;;;;;;10.15;96.79;144750.78;1814480;77;22196;-67
2021/09/25 02:48:09;;;;;;;3.67;1.37;;;;;;;10.10;96.89;144739.55;1820974;77;22258;-67
2021/09/25 02:51:03;;;;;;;5.05;1.55;;;;;;;10.08;97.10;144733.28;1826962;77;22171;-70
2021/09/25 02:53:45;;;;;;;3.45;1.00;;;;;;;10.06;97.29;144728.25;1819200;77;22168;-68
2021/09/25 02:56:19;;;;;;;6.17;1.40;;;;;;;10.05;97.47;144727.00;1816661;77;22172;-70
2021/09/25 02:58:54;;;;;;;6.70;1.30;;;;;;;10.00;97.53;144715.72;1819004;77;22208;-58
2021/09/25 03:01:32;;;;;;;5.58;1.17;;;;;;;9.98;97.57;144710.69;1834729;77;22163;-68
2021/09/25 03:04:32;;;;;;;2.80;1.20;;;;;;;10.00;97.64;144714.47;1853197;77;22608;-70
2021/09/25 03:07:08;;;;;;;4.35;1.55;;;;;;;10.02;97.64;144719.44;1819175;77;27984;-67
2021/09/25 03:09:49;;;;;;;8.65;1.45;;;;;;;10.05;97.42;144727.00;1853583;77;22187;-61
2021/09/25 03:12:43;;;;;;;6.70;1.05;;;;;;;10.06;97.26;144728.25;1853509;77;22135;-69
2021/09/25 03:15:37;;;;;;;3.80;1.55;;;;;;;10.04;97.20;144724.47;1853648;77;22136;-68
2021/09/25 03:18:32;;;;;;;10.00;2.00;;;;;;;10.05;97.00;144725.72;1834781;77;22133;-58
2021/09/25 03:21:08;;;;;;;8.68;1.60;;;;;;;10.05;97.00;144727.00;1834906;77;22199;-59
2021/09/25 03:23:49;;;;;;;6.78;1.37;;;;;;;10.05;96.95;144727.00;1843692;77;22247;-64
2021/09/25 03:26:25;;;;;;;4.42;1.40;;;;;;;10.05;96.85;144727.00;1837483;77;38295;-59
2021/09/25 03:29:08;;;;;;;6.12;1.50;;;;;;;10.08;96.78;144733.28;1851996;77;22713;-69
2021/09/25 03:32:03;;;;;;;4.08;1.35;;;;;;;10.07;96.69;144730.73;1834958;77;22136;-67
2021/09/25 03:34:39;;;;;;;8.30;1.67;;;;;;;10.08;96.69;144734.52;1853534;77;22128;-66
2021/09/25 03:37:21;;;;;;;4.28;1.40;;;;;;;10.09;96.51;144737.00;1834095;77;22184;-65
2021/09/25 03:39:56;;;;;;;5.85;1.72;;;;;;;10.08;96.50;144734.52;1834992;77;22657;-58
2021/09/25 03:42:50;;;;;;;4.75;1.70;;;;;;;10.05;96.44;144727.00;1834950;77;22177;-62
2021/09/25 03:45:25;;;;;;;8.40;1.50;;;;;;;10.03;96.48;144720.73;1834976;77;22129;-64
2021/09/25 03:48:00;;;;;;;6.12;1.47;;;;;;;10.05;96.52;144727.00;1853551;77;22132;-58
2021/09/25 03:50:36;;;;;;;4.45;1.42;;;;;;;10.04;96.56;144724.47;1819357;77;28417;-69
2021/09/25 03:53:30;;;;;;;4.90;1.52;;;;;;;10.10;96.45;144738.25;1853527;77;22131;-67
2021/09/25 03:56:12;;;;;;;8.73;1.95;;;;;;;10.09;96.39;144737.00;1834194;77;22183;-64
2021/09/25 03:59:05;;;;;;;9.40;1.70;;;;;;;10.11;96.17;144740.78;1834972;77;22144;-64
2021/09/25 04:02:00;;;;;;;4.70;1.20;;;;;;;10.09;96.09;144737.00;1851426;77;22216;-62
2021/09/25 04:04:35;;;;;;;3.12;1.30;;;;;;;10.09;96.09;144737.00;1834950;77;22147;-60
2021/09/25 04:07:28;;;;;;;4.12;1.37;;;;;;;10.17;96.08;144755.81;1834911;77;22642;-61
2021/09/25 04:10:06;;;;;;;7.80;1.52;;;;;;;10.18;95.96;144759.59;1853581;77;22248;-68
2021/09/25 04:13:01;;;;;;;6.75;1.75;;;;;;;10.18;95.80;144759.59;1834890;77;22539;-66
2021/09/25 04:15:35;;;;;;;3.05;1.27;;;;;;;10.19;95.75;144762.08;1853570;77;22128;-67
2021/09/25 04:18:11;;;;;;;5.33;1.52;;;;;;;10.19;95.66;144762.08;1834988;77;22124;-63
2021/09/25 04:21:05;;;;;;;4.70;1.42;;;;;;;10.19;95.64;144762.08;1834883;77;22187;-63
2021/09/25 04:23:40;;;;;;;8.90;1.30;;;;;;;10.19;95.64;144762.08;1853534;77;22135;-63
2021/09/25 04:26:16;;;;;;;5.92;1.52;;;;;;;10.20;95.53;144764.62;1835005;77;22579;-66
2021/09/25 04:28:52;;;;;;;3.83;1.12;;;;;;;10.22;95.50;144769.59;1834744;77;22163;-68
2021/09/25 04:31:28;;;;;;;5.55;1.77;;;;;;;10.22;95.44;144769.59;1834760;77;22176;-65
2021/09/25 04:34:23;;;;;;;3.47;1.22;;;;;;;10.25;95.37;144774.63;1834948;77;22572;-62
2021/09/25 04:37:37;;;;;;;10.08;1.50;;;;;;;10.25;95.30;144774.63;1840161;77;22208;-58
2021/09/25 04:40:13;;;;;;;8.63;1.55;;;;;;;10.27;95.25;144779.64;1834999;77;22125;-65
2021/09/25 04:42:49;;;;;;;12.78;1.37;;;;;;;10.28;95.03;144783.47;1834857;77;22154;-64
2021/09/25 04:45:44;;;;;;;7.55;1.72;;;;;;;10.27;94.80;144779.64;1853496;77;22554;-66
2021/09/25 04:48:20;;;;;;;4.00;1.17;;;;;;;10.26;94.89;144777.16;1834840;77;22156;-69
2021/09/25 04:51:14;;;;;;;7.08;1.40;;;;;;;10.29;94.75;144784.72;1853532;77;22124;-69
2021/09/25 04:53:49;;;;;;;5.47;1.20;;;;;;;10.28;94.58;144782.19;1837797;77;27973;-61
2021/09/25 04:56:42;;;;;;;4.40;1.10;;;;;;;10.33;94.36;144796.02;1851290;77;22187;-64
2021/09/25 04:59:23;;;;;;;5.87;1.60;;;;;;;10.39;94.15;144809.80;1852595;77;22212;-61
2021/09/25 05:01:58;;;;;;;4.97;1.55;;;;;;;10.51;94.45;144839.91;1834963;77;22129;-68
2021/09/25 05:04:33;;;;;;;4.05;1.37;;;;;;;10.59;93.48;144858.72;1835036;77;22136;-68
2021/09/25 05:07:07;;;;;;;6.37;1.17;;;;;;;10.62;93.58;144867.47;1834804;77;22167;-64
2021/09/25 05:09:45;;;;;;;5.15;1.55;;;;;;;10.62;93.24;144867.47;1853038;77;22235;-68
2021/09/25 05:12:40;;;;;;;4.62;1.20;;;;;;;10.71;92.88;144887.53;1832594;77;22200;-66
2021/09/25 05:15:33;;;;;;;2.98;1.10;;;;;;;10.70;92.12;144885.05;1834034;77;22167;-65
2021/09/25 05:18:08;;;;;;;4.20;1.40;;;;;;;10.68;91.93;144881.27;1834987;77;22132;-66
2021/09/25 05:20:43;;;;;;;6.08;1.27;;;;;;;10.68;92.01;144881.27;1834023;77;22171;-65
2021/09/25 05:23:37;;;;;;;3.22;0.98;;;;;;;10.67;91.35;144878.78;1834828;77;22274;-65
2021/09/25 05:26:18;;;;;;;3.12;1.20;;;;;;;10.63;91.40;144870.02;1834075;77;22176;-64
2021/09/25 05:28:53;;;;;;;2.60;1.12;;;;;;;10.67;91.06;144877.53;1879404;75;22116;-60
2021/09/25 05:31:28;;;;;;;1.95;1.10;;;;;;;10.66;90.74;144876.28;1853519;77;22143;-63
2021/09/25 05:34:05;;;;;;;4.25;1.10;;;;;;;10.64;90.68;144872.50;1834702;77;22155;-62
2021/09/25 05:36:40;;;;;;;6.55;1.32;;;;;;;10.64;90.62;144871.25;1827637;77;27959;-69
2021/09/25 05:39:21;;;;;;;5.12;1.05;;;;;;;10.67;90.57;144878.78;1832581;77;22137;-65
2021/09/25 05:41:57;;;;;;;6.45;1.67;;;;;;;10.61;90.32;144863.75;1817065;77;22168;-62
2021/09/25 05:44:32;;;;;;;7.65;1.47;;;;;;;10.56;90.28;144852.44;1831950;77;22131;-64
2021/09/25 05:47:13;;;;;;;4.78;1.02;;;;;;;10.54;90.43;144846.17;1836228;77;22152;-62
2021/09/25 05:50:08;;;;;;;7.10;1.77;;;;;;;10.52;90.57;144841.16;1837591;77;22179;-63
2021/09/25 05:53:22;;;;;;;2.92;1.27;;;;;;;10.48;90.86;144831.09;1833096;77;22216;-66
2021/09/25 05:56:09;;;;;;;5.47;1.30;;;;;;;10.43;90.86;144819.80;1834688;77;22193;-62
2021/09/25 05:59:03;;;;;;;3.42;1.30;;;;;;;10.45;91.16;144824.83;1829103;77;22620;-63
2021/09/25 06:01:44;;;;;;;4.30;1.50;;;;;;;10.46;91.03;144826.06;1853508;77;22141;-62
2021/09/25 06:04:20;;;;;;;8.03;1.27;;;;;;;10.45;91.11;144824.83;1837760;77;28394;-60
2021/09/25 06:06:55;;;;;;;5.20;1.30;;;;;;;10.47;90.63;144828.61;1834949;77;22136;-61
2021/09/25 06:09:30;;;;;;;6.87;1.92;;;;;;;10.43;90.60;144819.80;1853496;77;22554;-67
2021/09/25 06:12:11;;;;;;;7.00;1.60;;;;;;;10.44;90.77;144822.34;1799675;79;22204;-64
2021/09/25 06:14:53;;;;;;;4.10;1.50;;;;;;;10.48;90.94;144832.39;1853579;77;22135;-63
2021/09/25 06:17:51;;;;;;;6.95;1.22;;;;;;;10.48;90.79;144832.39;1834155;77;22177;-65
2021/09/25 06:20:26;;;;;;;3.95;1.25;;;;;;;10.50;90.64;144837.38;1853539;77;22152;-61
2021/09/25 06:23:01;;;;;;;3.27;1.30;;;;;;;10.54;90.45;144847.42;1835006;77;22133;-62
2021/09/25 06:25:36;;;;;;;7.40;1.27;;;;;;;10.58;90.41;144857.47;1853501;77;22127;-61
2021/09/25 06:28:30;;;;;;;3.87;1.12;;;;;;;10.67;90.17;144877.53;1853494;77;22144;-64
2021/09/25 06:31:23;;;;;;;3.75;1.50;;;;;;;10.70;89.76;144885.05;1834940;77;22132;-65
2021/09/25 06:33:58;;;;;;;3.77;1.40;;;;;;;10.78;89.62;144905.11;1834989;77;22136;-59
2021/09/25 06:36:34;;;;;;;6.20;1.42;;;;;;;10.88;89.33;144930.19;1834957;77;22128;-70
2021/09/25 06:39:15;;;;;;;7.12;1.55;;;;;;;11.01;88.95;144961.56;1843156;77;22690;-63
2021/09/25 06:42:09;;;;;;;6.20;1.47;;;;;;;11.19;88.31;145005.47;1834990;77;22124;-65
2021/09/25 06:45:05;;;;;;;4.55;1.62;;;;;;;11.34;87.72;145041.88;1810317;77;22198;-61
2021/09/25 06:47:48;;;;;;;5.45;1.57;;;;;;;11.49;87.05;145080.77;1853396;77;22214;-66
2021/09/25 06:50:42;;;;;;;4.75;2.15;;;;;;;11.71;86.29;145133.52;1853430;77;22180;-66
2021/09/25 06:53:36;;;;;;;6.67;1.52;;;;;;;11.83;85.67;145163.66;1834936;77;22577;-66
2021/09/25 06:56:11;;;;;;;3.92;1.40;;;;;;;11.86;85.20;145171.23;1834986;77;22120;-64
2021/09/25 06:59:05;;;;;;;5.30;1.50;;;;;;;11.89;84.67;145178.75;1853487;77;22593;-62
2021/09/25 07:01:39;;;;;;;4.35;1.20;;;;;;;11.89;84.86;145178.75;1834976;77;22578;-60
2021/09/25 07:04:14;;;;;;;5.75;1.40;;;;;;;11.94;84.91;145191.31;1853508;77;22574;-66
2021/09/25 07:07:08;;;;;;;5.90;1.30;;;;;;;12.09;84.78;145226.48;1834887;77;22132;-64
2021/09/25 07:09:43;;;;;;;5.58;2.00;;;;;;;12.19;84.35;145251.59;1853599;77;22128;-62
2021/09/25 07:12:37;;;;;;;5.30;1.95;;;;;;;12.19;83.93;145251.59;1838413;77;22619;-65
2021/09/25 07:15:32;;;;;;;5.17;1.75;;;;;;;12.09;84.01;145227.72;1853532;77;22136;-62
2021/09/25 07:18:25;;;;;;;9.50;1.80;;;;;;;12.06;84.30;145218.91;1853370;77;22135;-64
2021/09/25 07:21:07;;;;;;;6.30;1.75;;;;;;;12.06;84.54;145218.91;1853585;77;22167;-67
2021/09/25 07:23:42;;;;;;;6.08;1.92;;;;;;;12.13;84.58;145236.50;1802371;77;22179;-63
2021/09/25 07:26:23;;;;;;;8.13;1.47;;;;;;;12.19;84.49;145250.31;1830211;77;22238;-63
2021/09/25 07:29:16;;;;;;;6.90;1.65;;;;;;;12.30;84.23;145277.97;1819976;77;22626;-64
2021/09/25 07:31:51;;;;;;;6.25;1.72;;;;;;;12.41;84.15;145304.33;1815800;77;22215;-67
2021/09/25 07:34:27;;;;;;;5.10;1.85;;;;;;;12.48;83.92;145321.92;1853557;77;22132;-66
2021/09/25 07:37:20;;;;;;;4.85;1.47;;;;;;;12.60;83.35;145352.08;1834872;77;22140;-62
2021/09/25 07:39:55;;;;;;;4.83;2.00;;;;;;;12.79;83.02;145399.78;1829421;77;22598;-61
2021/09/25 07:42:31;;;;;;;3.70;1.50;;;;;;;12.94;82.42;145436.23;1817343;77;22148;-64
2021/09/25 07:45:32;;;;;;;10.95;2.02;;;;;;;12.99;82.24;145448.80;1813264;77;22195;-60
2021/09/25 07:48:26;;;;;;;5.80;2.27;;;;;;;13.07;81.88;145467.66;1827480;77;22582;-63
2021/09/25 07:51:07;;;;;;;6.92;2.20;;;;;;;13.15;81.28;145487.80;1834210;77;22182;-63
2021/09/25 07:54:00;;;;;;;4.85;2.08;;;;;;;13.13;80.42;145481.52;1836533;77;22144;-61
2021/09/25 07:57:02;;;;;;;5.95;2.02;;;;;;;13.19;80.85;145497.83;1820722;77;22187;-63
2021/09/25 07:59:37;;;;;;;8.35;2.20;;;;;;;13.48;80.54;145567.00;1821053;77;22165;-60
2021/09/25 08:02:17;;;;;;;5.25;1.77;;;;;;;13.83;79.14;145655.00;1820315;77;22171;-66
2021/09/25 08:05:13;;;;;;;7.20;1.80;;;;;;;13.97;77.98;145687.69;1816800;77;22580;-71
2021/09/25 08:08:12;;;;;;;8.95;2.10;;;;;;;14.05;77.55;145709.09;1816139;77;22148;-61
2021/09/25 08:10:53;;;;;;;4.90;1.77;;;;;;;14.07;77.20;145714.14;1824227;77;22195;-66
2021/09/25 08:13:29;;;;;;;8.95;2.20;;;;;;;14.08;77.18;145715.39;1835002;77;22136;-66
2021/09/25 08:16:23;;;;;;;7.05;1.72;;;;;;;14.03;76.53;145704.06;1834922;77;22157;-66
2021/09/25 08:18:58;;;;;;;7.90;2.30;;;;;;;13.88;76.82;145667.58;1834961;77;22136;-64
2021/09/25 08:21:38;;;;;;;5.25;1.87;;;;;;;13.93;77.30;145678.91;1834153;77;22182;-73
2021/09/25 08:24:13;;;;;;;10.85;2.22;;;;;;;13.97;77.23;145688.98;1850019;77;22542;-69
2021/09/25 08:26:55;;;;;;;9.60;1.92;;;;;;;14.01;77.38;145699.02;1820171;77;22179;-60
2021/09/25 08:29:31;;;;;;;6.12;2.00;;;;;;;14.17;77.15;145738.05;1853377;77;22171;-63
2021/09/25 08:32:12;;;;;;;8.23;1.90;;;;;;;14.28;75.85;145764.45;1845763;77;22216;-65
2021/09/25 08:35:08;;;;;;;8.18;1.90;;;;;;;14.39;76.14;145792.09;1834799;77;22160;-61
2021/09/25 08:37:44;;;;;;;7.12;2.42;;;;;;;14.56;75.35;145832.44;1834700;77;22156;-65
2021/09/25 08:40:21;;;;;;;4.95;1.70;;;;;;;14.46;74.38;145808.47;1843229;78;20099;-63
2021/09/25 08:42:56;;;;;;;6.87;2.30;;;;;;;14.39;74.94;145792.09;1819263;77;27967;-67
2021/09/25 08:45:31;;;;;;;5.20;1.95;;;;;;;14.54;75.00;145828.64;1834949;77;22550;-59
2021/09/25 08:48:27;;;;;;;7.25;1.70;;;;;;;14.62;73.65;145847.52;1805597;77;22613;-61
2021/09/25 08:51:21;;;;;;;8.70;2.00;;;;;;;14.69;73.71;145865.14;1813783;77;22223;-68
2021/09/25 08:54:15;;;;;;;10.25;2.00;;;;;;;14.79;73.57;145890.31;1851589;77;22231;-67
2021/09/25 08:57:09;;;;;;;4.62;1.57;;;;;;;14.67;71.92;145860.09;1852774;77;22135;-59
2021/09/25 08:59:44;;;;;;;5.25;1.82;;;;;;;14.55;72.88;145831.14;1835012;77;22161;-60
2021/09/25 09:02:38;;;;;;;8.93;1.87;;;;;;;14.56;73.04;145832.44;1835202;77;22568;-68
2021/09/25 09:05:38;;;;;;;4.55;1.70;;;;;;;14.52;73.30;145824.81;1853332;77;22209;-67
2021/09/25 09:08:14;;;;;;;7.53;1.85;;;;;;;14.59;73.40;145841.22;1834945;77;22136;-64
2021/09/25 09:11:09;;;;;;;10.48;2.20;;;;;;;14.68;73.58;145862.59;1834725;77;22236;-62
2021/09/25 09:13:48;;;;;;;6.90;1.90;;;;;;;14.74;72.83;145877.72;1835021;77;20207;-64
2021/09/25 09:16:57;;;;;;;6.15;1.80;;;;;;;14.79;72.77;145890.31;1813967;77;22251;-62
2021/09/25 09:19:51;;;;;;;6.47;1.47;;;;;;;14.83;72.62;145900.34;1824147;77;22224;-68
2021/09/25 09:22:45;;;;;;;10.50;1.95;;;;;;;14.72;72.66;145872.69;1823986;77;22164;-69
2021/09/25 09:25:41;;;;;;;7.00;1.67;;;;;;;14.64;73.21;145852.56;1853527;77;22135;-63
2021/09/25 09:28:26;;;;;;;7.53;1.72;;;;;;;14.73;73.47;145876.47;1834436;77;22187;-69
2021/09/25 09:31:09;;;;;;;4.90;1.52;;;;;;;14.79;73.01;145889.06;1833348;77;22217;-64
2021/09/25 09:34:09;;;;;;;6.90;1.57;;;;;;;14.71;72.65;145871.44;1830175;77;22647;-68
2021/09/25 09:37:23;;;;;;;7.62;1.95;;;;;;;14.62;73.13;145847.52;1808271;77;22263;-62
2021/09/25 09:40:05;;;;;;;6.58;1.72;;;;;;;14.48;73.72;145813.52;1817327;77;22567;-63
2021/09/25 09:42:49;;;;;;;6.65;2.02;;;;;;;14.44;74.26;145803.44;1841245;77;22179;-71
2021/09/25 09:45:43;;;;;;;7.90;1.80;;;;;;;14.39;75.32;145792.09;1812380;77;22172;-65
2021/09/25 09:48:37;;;;;;;7.08;1.85;;;;;;;14.42;75.50;145799.64;1834807;77;22270;-59
2021/09/25 09:51:12;;;;;;;7.42;1.80;;;;;;;14.34;75.09;145779.53;1853506;77;22139;-66
2021/09/25 09:53:49;;;;;;;7.00;1.90;;;;;;;14.32;75.76;145774.48;1853510;77;22176;-69
2021/09/25 09:56:25;;;;;;;7.65;2.12;;;;;;;14.35;75.63;145782.06;1853488;77;22542;-63
2021/09/25 09:59:20;;;;;;;4.85;1.80;;;;;;;14.46;75.62;145808.47;1834827;77;22159;-64
2021/09/25 10:02:14;;;;;;;7.55;2.47;;;;;;;14.66;75.75;145858.84;1817202;77;22167;-63
2021/09/25 10:04:56;;;;;;;6.33;2.10;;;;;;;14.92;75.88;145923.02;1829755;77;22614;-62
2021/09/25 10:07:32;;;;;;;8.35;3.00;;;;;;;15.15;74.38;145978.41;1811591;77;27946;-61
2021/09/25 10:10:10;;;;;;;7.28;2.62;;;;;;;15.24;74.29;145999.78;1817445;77;22171;-70
2021/09/25 10:12:55;;;;;;;6.78;2.40;;;;;;;15.39;73.99;146037.55;1825710;77;22629;-64
2021/09/25 10:15:30;;;;;;;7.28;2.50;;;;;;;15.67;73.51;146106.78;1831249;77;22218;-66
2021/09/25 10:18:25;;;;;;;8.63;2.65;;;;;;;16.04;72.50;146197.53;1819463;77;22594;-67
2021/09/25 10:21:11;;;;;;;6.00;1.95;;;;;;;16.30;70.88;146260.53;1830205;77;22156;-66
2021/09/25 10:24:10;;;;;;;4.95;1.77;;;;;;;16.32;69.25;146266.81;1816474;77;22277;-56
2021/09/25 10:26:47;;;;;;;6.90;2.95;;;;;;;16.43;67.90;146293.27;1816692;77;22297;-60
2021/09/25 10:29:30;;;;;;;6.05;2.05;;;;;;;16.39;66.30;146283.22;1853421;77;22609;-64
2021/09/25 10:32:33;;;;;;;5.08;1.57;;;;;;;16.16;66.77;146227.78;1829962;77;22239;-62
2021/09/25 10:35:28;;;;;;;4.97;1.82;;;;;;;16.24;66.75;146247.94;1814356;77;22192;-63
2021/09/25 10:38:42;;;;;;;6.50;1.95;;;;;;;16.26;66.33;146252.97;1812850;77;22295;-61
2021/09/25 10:41:45;;;;;;;5.78;1.62;;;;;;;16.36;65.95;146275.63;1821456;77;22605;-67
2021/09/25 10:44:25;;;;;;;6.22;1.80;;;;;;;16.51;65.70;146313.42;1834880;77;22140;-65
2021/09/25 10:47:13;;;;;;;7.40;1.77;;;;;;;16.86;64.77;146399.17;1853032;77;22151;-59
2021/09/25 10:49:59;;;;;;;4.92;1.70;;;;;;;17.25;63.55;146494.97;1834094;77;22201;-61
2021/09/25 10:53:15;;;;;;;8.53;1.65;;;;;;;17.44;62.98;146542.89;1834911;77;22602;-61
2021/09/25 10:56:02;;;;;;;5.37;1.50;;;;;;;17.67;62.00;146598.38;1827235;78;22634;-61
2021/09/25 10:58:45;;;;;;;6.12;1.62;;;;;;;17.96;59.75;146670.30;1833395;77;22191;-62
2021/09/25 11:01:42;;;;;;;5.60;2.17;;;;;;;18.04;59.15;146689.22;1820193;77;22192;-62
2021/09/25 11:04:35;;;;;;;5.37;2.12;;;;;;;18.08;58.58;146700.58;1831217;77;22144;-66
2021/09/25 11:07:41;;;;;;;9.15;2.20;;;;;;;18.03;58.16;146686.70;1853412;77;22131;-63
2021/09/25 11:10:39;;;;;;;7.08;1.70;;;;;;;17.87;58.61;146648.88;1834956;77;20214;-62
2021/09/25 11:14:11;;;;;;;6.35;1.80;;;;;;;17.72;58.86;146610.98;1820038;77;22172;-63
2021/09/25 11:16:57;;;;;;;9.25;1.60;;;;;;;17.55;58.64;146570.66;1834021;77;22164;-60
2021/09/25 11:20:09;;;;;;;8.73;1.95;;;;;;;17.47;59.34;146549.19;1834862;77;22626;-63
2021/09/25 11:22:59;;;;;;;5.72;1.87;;;;;;;17.64;59.71;146592.08;1834904;77;22132;-61
2021/09/25 11:26:15;;;;;;;7.97;2.45;;;;;;;17.78;59.83;146627.41;1833748;77;22208;-61
2021/09/25 11:29:08;;;;;;;9.33;2.47;;;;;;;17.72;60.27;146610.98;1853136;77;22246;-67
2021/09/25 11:32:08;;;;;;;10.35;2.22;;;;;;;17.62;59.58;146587.02;1826865;77;22167;-64
2021/09/25 11:35:06;;;;;;;9.58;2.87;;;;;;;17.47;60.30;146550.44;1834871;77;22159;-59
2021/09/25 11:38:09;;;;;;;10.85;3.67;;;;;;;17.36;60.79;146522.72;1853470;77;22135;-65
2021/09/25 11:41:16;;;;;;;8.65;2.42;;;;;;;17.22;61.54;146487.41;1853469;77;22187;-61
2021/09/25 11:44:08;;;;;;;10.03;3.05;;;;;;;17.20;61.56;146482.36;1853327;77;22210;-66
2021/09/25 11:46:43;;;;;;;10.70;3.20;;;;;;;17.22;61.62;146488.66;1818972;77;22611;-65
2021/09/25 11:49:37;;;;;;;13.68;3.47;;;;;;;17.22;60.87;146488.66;1833354;77;22212;-66
2021/09/25 11:52:12;;;;;;;10.18;2.72;;;;;;;17.04;61.33;146444.53;1835023;77;22128;-68
2021/09/25 11:55:13;;;;;;;9.23;2.85;;;;;;;17.08;61.38;146454.64;1834095;77;22140;-69
2021/09/25 11:58:12;;;;;;;7.20;2.58;;;;;;;16.99;61.25;146431.94;1815439;77;22651;-60
2021/09/25 12:01:06;;;;;;;10.50;2.50;;;;;;;16.97;61.46;146426.94;1825991;77;22642;-60
2021/09/25 12:04:00;;;;;;;9.20;3.10;;;;;;;16.97;62.21;146426.94;1831056;77;22165;-58
2021/09/25 12:06:35;;;;;;;10.98;3.22;;;;;;;17.03;62.14;146440.78;1834949;77;22140;-62
2021/09/25 12:09:10;;;;;;;12.95;3.00;;;;;;;17.03;62.74;146442.03;1827041;77;22164;-60
2021/09/25 12:11:45;;;;;;;7.17;3.15;;;;;;;17.00;63.22;146434.48;1824328;77;22224;-60
2021/09/25 12:14:20;;;;;;;14.50;4.62;;;;;;;16.92;63.39;146414.33;1834765;77;22173;-60
2021/09/25 12:17:01;;;;;;;11.78;3.17;;;;;;;16.82;64.19;146389.13;1834384;77;22266;-52
2021/09/25 12:19:37;;;;;;;11.28;3.47;;;;;;;16.66;64.16;146351.27;1853418;77;22159;-52
2021/09/25 12:22:31;;;;;;;9.23;3.25;;;;;;;16.69;63.93;146358.81;1852548;77;22172;-55
2021/09/25 12:25:09;;;;;;;13.05;3.80;;;;;;;16.62;63.36;146341.17;1819270;77;27991;-54
2021/09/25 12:27:42;;;;;;;7.80;2.90;;;;;;;16.59;63.16;146333.63;1835194;77;20210;-53
2021/09/25 12:30:18;;;;;;;12.85;3.90;;;;;;;16.60;63.25;146336.13;1819137;77;28003;-54
2021/09/25 12:33:17;;;;;;;12.95;4.05;;;;;;;16.65;62.78;146348.72;1834854;77;22575;-54
2021/09/25 12:35:59;;;;;;;13.48;4.25;;;;;;;16.47;63.07;146303.38;1834734;77;22183;-56
2021/09/25 12:38:56;;;;;;;11.28;3.80;;;;;;;16.44;63.13;146295.81;1853447;77;22135;-55
2021/09/25 12:42:01;;;;;;;14.80;3.40;;;;;;;16.49;63.17;146308.41;1833970;77;22167;-56
2021/09/25 12:45:15;;;;;;;13.03;3.58;;;;;;;16.46;63.04;146300.81;1834719;77;22257;-58
2021/09/25 12:47:50;;;;;;;9.70;3.12;;;;;;;16.44;63.22;146297.06;1819427;77;27982;-54
2021/09/25 12:50:28;;;;;;;9.60;3.80;;;;;;;16.51;64.01;146313.42;1853464;77;22140;-56